Time;durP1;ratioP1;P1;durP2;ratioP2;P2;SDS_P1;SDS_P2;PMS_P1;PMS_P2;Temp;Humidity;BMP_temperature;BMP_pressure;BME280_temperature;BME280_humidity;BME280_pressure;Samples;Min_cycle;Max_cycle;Signal;HPM_P1;HPM_P2
2022/08/06 00:01:05;;;;;;;3.83;1.60;;;;;;;52.39;10.99;100650.13;5093915;28;20494;-61
2022/08/06 00:03:32;;;;;;;4.57;1.67;;;;;;;50.51;12.59;100650.72;5093868;28;20032;-61
2022/08/06 00:05:59;;;;;;;5.75;1.70;;;;;;;51.48;11.77;100649.50;5093981;28;20019;-60
2022/08/06 00:08:26;;;;;;;7.03;1.70;;;;;;;54.71;8.99;100637.13;5093942;28;20057;-60
2022/08/06 00:10:52;;;;;;;30.23;2.72;;;;;;;53.31;10.69;100644.00;5093864;28;20070;-59
2022/08/06 00:13:19;;;;;;;33.65;3.05;;;;;;;54.32;9.19;100615.06;5093893;28;20081;-63
2022/08/06 00:15:46;;;;;;;5.18;1.70;;;;;;;54.86;9.38;100633.47;5093529;28;20070;-59
2022/08/06 00:18:12;;;;;;;3.83;1.38;;;;;;;54.74;9.31;100632.28;5093805;28;20083;-64
2022/08/06 00:20:40;;;;;;;5.90;1.60;;;;;;;53.95;10.12;100628.81;5093776;28;20024;-62
2022/08/06 00:23:06;;;;;;;13.57;1.85;;;;;;;52.99;10.32;100631.88;5093698;28;20032;-63
2022/08/06 00:25:33;;;;;;;9.65;1.58;;;;;;;51.47;11.82;100625.53;5093364;28;20028;-62
2022/08/06 00:28:00;;;;;;;17.35;2.15;;;;;;;52.27;10.81;100617.66;5093580;28;20036;-62
2022/08/06 00:30:26;;;;;;;33.90;2.85;;;;;;;52.06;10.70;100611.00;5091808;28;20032;-63
2022/08/06 00:32:56;;;;;;;6.30;1.60;;;;;;;50.93;11.59;100609.28;5093300;28;20036;-60
2022/08/06 00:35:22;;;;;;;8.25;1.55;;;;;;;48.83;13.27;100618.41;5084187;28;20482;-61
2022/08/06 00:37:49;;;;;;;6.40;1.52;;;;;;;48.75;13.36;100600.09;5081276;28;20070;-63
2022/08/06 00:40:18;;;;;;;15.68;2.08;;;;;;;48.55;13.62;100601.25;5089552;28;20048;-62
2022/08/06 00:42:45;;;;;;;8.82;1.55;;;;;;;47.42;13.83;100591.38;5084340;28;20017;-61
2022/08/06 00:45:12;;;;;;;4.53;1.58;;;;;;;47.63;13.97;100599.75;5084456;28;20044;-61
2022/08/06 00:47:38;;;;;;;7.20;1.77;;;;;;;45.57;15.87;100592.03;5087719;28;20028;-63
2022/08/06 00:50:05;;;;;;;9.70;1.48;;;;;;;45.24;16.79;100592.56;5083272;28;20032;-62
2022/08/06 00:52:32;;;;;;;8.85;1.88;;;;;;;44.85;16.90;100590.09;5087883;28;20031;-62
2022/08/06 00:54:59;;;;;;;5.50;1.75;;;;;;;45.91;16.20;100578.69;5085583;28;20037;-60
2022/08/06 00:57:25;;;;;;;6.68;1.70;;;;;;;46.36;15.09;100583.34;5084723;28;20023;-63
2022/08/06 00:59:52;;;;;;;5.03;1.52;;;;;;;45.89;16.28;100579.22;5083701;28;20052;-63
2022/08/06 01:02:19;;;;;;;6.72;1.80;;;;;;;45.27;16.19;100591.59;5082438;28;20063;-61
2022/08/06 01:04:46;;;;;;;7.07;1.58;;;;;;;45.58;16.49;100582.91;5089068;28;20028;-59
2022/08/06 01:07:12;;;;;;;8.20;1.45;;;;;;;46.33;15.78;100583.63;5087299;28;20418;-62
2022/08/06 01:09:39;;;;;;;8.05;2.25;;;;;;;45.85;15.62;100575.03;5082858;28;20116;-62
2022/08/06 01:12:06;;;;;;;8.00;1.67;;;;;;;45.73;16.11;100580.69;5091572;28;20052;-61
2022/08/06 01:14:33;;;;;;;7.57;1.50;;;;;;;45.27;16.21;100582.97;5092246;28;20095;-63
2022/08/06 01:17:06;;;;;;;6.75;1.70;;;;;;;44.32;16.82;100577.00;5092749;28;20408;-62
2022/08/06 01:19:58;;;;;;;138.45;7.68;;;;;;;43.20;18.46;100578.19;5090341;28;20552;-63
2022/08/06 01:23:00;;;;;;;11.93;1.80;;;;;;;43.56;17.76;100579.84;5092276;28;20036;-62
2022/08/06 01:26:03;;;;;;;11.85;1.60;;;;;;;43.99;17.38;100581.00;5093299;28;20040;-63
2022/08/06 01:28:38;;;;;;;9.60;1.55;;;;;;;43.18;17.98;100583.63;5092189;28;20420;-63
2022/08/06 01:31:09;;;;;;;95.68;4.80;;;;;;;43.78;17.86;100573.66;5092172;28;20047;-62
2022/08/06 01:33:46;;;;;;;15.07;2.00;;;;;;;44.20;17.69;100572.44;5092830;28;20086;-62
2022/08/06 01:36:30;;;;;;;6.82;1.70;;;;;;;43.97;17.94;100574.97;5092298;28;20062;-62
2022/08/06 01:38:59;;;;;;;125.28;6.43;;;;;;;43.69;18.44;100571.75;5091234;28;20583;-62
2022/08/06 01:41:40;;;;;;;11.48;1.90;;;;;;;43.58;18.56;100582.19;5089425;28;20035;-61
2022/08/06 01:44:10;;;;;;;8.18;2.10;;;;;;;43.36;18.88;100576.94;5091402;28;20043;-61
2022/08/06 01:46:40;;;;;;;13.30;2.10;;;;;;;43.43;19.21;100570.78;5093982;28;20034;-62
2022/08/06 01:49:09;;;;;;;9.07;2.00;;;;;;;43.05;19.51;100586.78;5096695;28;20031;-61
2022/08/06 01:51:39;;;;;;;7.55;1.90;;;;;;;42.91;19.47;100587.56;5096227;28;20044;-60
2022/08/06 01:54:08;;;;;;;12.30;2.00;;;;;;;42.82;19.83;100588.44;5095251;28;20505;-61
2022/08/06 01:56:41;;;;;;;7.63;1.88;;;;;;;42.56;19.76;100596.00;5096439;28;20036;-61
2022/08/06 01:59:10;;;;;;;21.67;2.17;;;;;;;42.04;20.83;100598.25;5095968;28;20027;-61
2022/08/06 02:01:38;;;;;;;9.95;2.20;;;;;;;41.51;20.76;100595.19;5095679;28;20078;-61
2022/08/06 02:04:07;;;;;;;7.43;1.80;;;;;;;41.50;20.68;100600.09;5095905;28;20028;-61
2022/08/06 02:06:42;;;;;;;11.27;1.77;;;;;;;41.33;20.83;100601.75;5095939;28;20046;-61
2022/08/06 02:09:13;;;;;;;12.80;1.98;;;;;;;41.24;21.02;100605.41;5095734;28;20092;-61
2022/08/06 02:11:42;;;;;;;4.53;1.65;;;;;;;41.05;21.52;100613.22;5095718;28;20507;-60
2022/08/06 02:14:12;;;;;;;14.65;2.28;;;;;;;40.81;22.02;100611.50;5095842;28;20112;-61
2022/08/06 02:16:41;;;;;;;22.27;2.60;;;;;;;40.61;22.26;100617.69;5095766;28;20039;-61
2022/08/06 02:19:13;;;;;;;13.23;2.30;;;;;;;40.38;22.57;100614.13;5095627;28;20060;-61
2022/08/06 02:21:43;;;;;;;29.52;2.35;;;;;;;40.03;22.65;100618.53;5093545;28;20047;-62
2022/08/06 02:24:11;;;;;;;5.85;1.73;;;;;;;39.76;22.72;100619.22;5095937;28;20074;-61
2022/08/06 02:26:40;;;;;;;8.70;2.10;;;;;;;39.57;23.29;100621.19;5095855;28;20137;-60
2022/08/06 02:29:14;;;;;;;5.32;1.80;;;;;;;39.46;22.90;100623.66;5095818;28;20413;-61
2022/08/06 02:31:43;;;;;;;42.72;4.30;;;;;;;39.34;23.32;100624.56;5095891;28;20032;-61
2022/08/06 02:34:10;;;;;;;13.52;2.03;;;;;;;39.24;22.96;100633.00;5095698;28;20028;-61
2022/08/06 02:36:49;;;;;;;30.20;2.90;;;;;;;39.22;23.99;100632.69;5095575;28;20035;-61
2022/08/06 02:39:24;;;;;;;72.43;3.85;;;;;;;39.05;23.59;100642.66;5095778;28;20043;-62
2022/08/06 02:42:03;;;;;;;22.92;2.55;;;;;;;38.85;23.22;100639.34;5094892;28;20035;-61
2022/08/06 02:44:56;;;;;;;6.43;1.95;;;;;;;38.68;23.63;100648.06;5094623;28;20032;-60
2022/08/06 02:47:44;;;;;;;12.77;1.92;;;;;;;38.43;23.76;100656.66;5093820;28;20068;-60
2022/08/06 02:50:15;;;;;;;8.85;1.70;;;;;;;38.17;23.69;100657.91;5094121;28;20131;-62
2022/08/06 02:52:51;;;;;;;22.70;2.50;;;;;;;37.98;24.45;100663.41;5094327;28;20044;-58
2022/08/06 02:55:21;;;;;;;19.23;2.30;;;;;;;37.89;24.91;100660.47;5094189;28;20034;-60
2022/08/06 02:57:57;;;;;;;12.07;2.10;;;;;;;37.82;24.64;100659.88;5094406;28;20032;-61
2022/08/06 03:00:26;;;;;;;8.20;1.95;;;;;;;37.62;25.22;100660.88;5091850;28;20043;-62
2022/08/06 03:02:57;;;;;;;7.95;1.83;;;;;;;37.57;25.48;100672.00;5094422;28;20028;-62
2022/08/06 03:05:25;;;;;;;8.43;1.90;;;;;;;37.48;25.35;100666.97;5124776;27;20505;-62
2022/08/06 03:07:54;;;;;;;7.22;2.00;;;;;;;37.41;25.47;100679.34;5094450;28;20024;-62
2022/08/06 03:10:24;;;;;;;5.40;1.67;;;;;;;37.36;25.59;100677.06;5092839;28;20567;-62
2022/08/06 03:12:53;;;;;;;44.88;3.00;;;;;;;37.26;25.34;100669.66;5094648;28;20047;-61
2022/08/06 03:15:23;;;;;;;9.02;1.92;;;;;;;37.24;25.58;100679.84;5094040;28;20055;-62
2022/08/06 03:17:50;;;;;;;15.13;2.40;;;;;;;37.24;25.46;100688.34;5094511;28;20024;-61
2022/08/06 03:20:20;;;;;;;10.10;2.00;;;;;;;37.14;25.92;100691.00;5093148;28;20042;-61
2022/08/06 03:22:50;;;;;;;9.82;2.28;;;;;;;36.95;26.08;100686.31;5095325;28;20473;-61
2022/08/06 03:25:19;;;;;;;5.07;2.10;;;;;;;37.09;26.54;100697.25;5094248;28;20039;-60
2022/08/06 03:27:50;;;;;;;19.23;2.67;;;;;;;37.09;25.78;100690.78;5094563;28;20028;-61
2022/08/06 03:30:19;;;;;;;13.30;2.30;;;;;;;37.10;26.82;100698.03;5094604;28;20032;-62
2022/08/06 03:32:48;;;;;;;8.18;2.22;;;;;;;37.25;26.53;100701.25;5094603;28;20032;-60
2022/08/06 03:35:16;;;;;;;15.30;2.63;;;;;;;37.09;26.40;100711.41;5094581;28;20071;-61
2022/08/06 03:37:45;;;;;;;29.63;3.28;;;;;;;36.91;26.60;100714.75;5094516;28;20517;-61
2022/08/06 03:40:14;;;;;;;8.88;2.03;;;;;;;36.78;27.09;100716.69;5093308;28;20044;-61
2022/08/06 03:42:41;;;;;;;13.02;2.35;;;;;;;36.66;27.48;100714.59;5094347;28;20103;-62
2022/08/06 03:45:08;;;;;;;11.15;2.15;;;;;;;36.56;27.54;100713.63;5094339;28;20036;-61
2022/08/06 03:47:45;;;;;;;41.15;3.40;;;;;;;36.56;27.54;100724.16;5094441;28;20020;-60
2022/08/06 03:50:18;;;;;;;53.78;4.10;;;;;;;36.45;27.50;100732.94;5094372;28;20047;-61
2022/08/06 03:53:23;;;;;;;15.53;2.30;;;;;;;36.38;28.51;100721.75;5091203;28;20036;-63
2022/08/06 03:55:50;;;;;;;;;;;;;;;36.34;28.44;100737.25;5069255;28;20049;-61
2022/08/06 03:58:19;;;;;;;29.98;3.00;;;;;;;36.26;27.81;100740.22;5087205;28;19976;-61
2022/08/06 04:00:51;;;;;;;19.88;4.18;;;;;;;36.46;28.14;100742.22;5086259;28;20127;-60
2022/08/06 04:03:20;;;;;;;23.45;5.68;;;;;;;36.44;28.78;100753.16;5081937;28;20541;-61
2022/08/06 04:05:47;;;;;;;19.23;5.20;;;;;;;36.33;28.72;100752.66;5084798;28;20032;-60
2022/08/06 04:08:15;;;;;;;32.17;6.35;;;;;;;36.48;28.33;100756.72;5082232;28;20119;-61
2022/08/06 04:10:45;;;;;;;17.60;5.55;;;;;;;36.66;28.70;100753.44;5083217;28;20028;-61
2022/08/06 04:13:15;;;;;;;22.30;4.93;;;;;;;36.45;28.60;100766.09;5086615;28;20040;-59
2022/08/06 04:15:42;;;;;;;30.52;8.20;;;;;;;36.28;28.63;100765.25;5092651;28;20441;-60
2022/08/06 04:18:13;;;;;;;27.30;8.50;;;;;;;36.14;29.17;100771.25;5083448;28;20124;-59
2022/08/06 04:20:43;;;;;;;28.65;8.20;;;;;;;36.03;29.29;100771.50;5088561;28;20023;-58
2022/08/06 04:23:10;;;;;;;25.42;7.20;;;;;;;36.01;29.24;100779.63;5088822;28;20024;-60
2022/08/06 04:25:41;;;;;;;24.17;8.02;;;;;;;35.94;29.99;100791.91;5080057;28;20058;-60
2022/08/06 04:28:10;;;;;;;34.95;12.38;;;;;;;35.92;29.98;100793.56;5085647;28;20039;-58
2022/08/06 04:30:39;;;;;;;37.95;11.20;;;;;;;35.98;29.34;100797.47;5083576;28;20040;-63
2022/08/06 04:33:11;;;;;;;53.88;11.07;;;;;;;35.95;29.62;100793.50;5074560;28;20024;-62
2022/08/06 04:35:41;;;;;;;60.35;10.45;;;;;;;36.08;29.58;100796.44;5083927;28;20016;-61
2022/08/06 04:38:13;;;;;;;81.82;9.80;;;;;;;36.02;29.76;100798.19;5085837;28;20036;-61
2022/08/06 04:40:41;;;;;;;69.57;10.35;;;;;;;35.89;29.44;100802.91;5085426;28;20024;-62
2022/08/06 04:43:12;;;;;;;42.45;9.30;;;;;;;35.90;29.40;100807.34;5087377;28;20071;-61
2022/08/06 04:45:43;;;;;;;31.45;7.70;;;;;;;35.88;29.74;100813.44;5083691;28;20055;-63
2022/08/06 04:48:11;;;;;;;24.80;6.75;;;;;;;35.76;29.90;100801.97;5067528;28;20044;-61
2022/08/06 04:50:39;;;;;;;20.50;5.63;;;;;;;35.73;29.73;100803.66;5086762;28;20052;-61
2022/08/06 04:53:13;;;;;;;20.98;5.43;;;;;;;35.62;29.58;100801.03;5079876;28;20448;-60
2022/08/06 04:55:42;;;;;;;18.58;3.70;;;;;;;35.57;30.57;100800.75;5086963;28;20028;-62
2022/08/06 04:58:11;;;;;;;14.07;3.80;;;;;;;35.60;29.90;100802.69;5085190;28;20035;-62
2022/08/06 05:00:40;;;;;;;19.55;4.10;;;;;;;35.57;30.40;100795.88;5088493;28;20512;-62
2022/08/06 05:03:07;;;;;;;14.93;3.40;;;;;;;35.45;30.66;100804.22;5080297;28;20056;-61
2022/08/06 05:05:39;;;;;;;18.25;3.35;;;;;;;35.47;30.33;100801.75;5086013;28;20028;-63
2022/08/06 05:08:07;;;;;;;20.02;3.88;;;;;;;35.64;29.89;100795.72;5086391;28;20483;-62
2022/08/06 05:10:43;;;;;;;21.85;4.38;;;;;;;36.02;29.72;100809.50;5084006;28;20043;-62
2022/08/06 05:13:13;;;;;;;32.42;5.78;;;;;;;36.08;29.68;100804.13;5087404;28;20036;-63
2022/08/06 05:15:49;;;;;;;36.95;6.50;;;;;;;35.97;29.89;100813.66;5084271;28;20024;-63
2022/08/06 05:18:33;;;;;;;34.53;7.13;;;;;;;36.26;29.24;100813.78;5084616;28;20498;-63
2022/08/06 05:21:02;;;;;;;43.53;7.97;;;;;;;36.23;29.76;100803.34;5084850;28;20161;-61
2022/08/06 05:23:35;;;;;;;23.73;6.40;;;;;;;36.03;29.54;100800.56;5088284;28;20155;-63
2022/08/06 05:26:02;;;;;;;30.57;6.47;;;;;;;36.07;29.74;100806.16;5087282;28;20040;-64
2022/08/06 05:28:28;;;;;;;30.90;6.10;;;;;;;36.11;29.68;100801.22;5086430;28;20473;-63
2022/08/06 05:30:55;;;;;;;34.92;6.10;;;;;;;36.16;29.15;100809.19;5084685;28;20036;-63
2022/08/06 05:33:31;;;;;;;37.20;6.22;;;;;;;36.14;29.67;100806.00;5087360;28;20028;-62
2022/08/06 05:35:59;;;;;;;21.58;5.47;;;;;;;36.20;29.45;100812.72;5087746;28;20031;-64
2022/08/06 05:38:26;;;;;;;29.05;5.80;;;;;;;36.05;29.75;100802.16;5086310;28;20039;-63
2022/08/06 05:40:55;;;;;;;28.67;6.15;;;;;;;36.09;29.37;100800.88;5087087;28;21329;-65
2022/08/06 05:43:22;;;;;;;17.77;4.13;;;;;;;36.02;28.36;100804.63;5087790;28;20028;-61
2022/08/06 05:45:52;;;;;;;15.70;4.13;;;;;;;36.00;27.46;100800.66;5087932;28;20021;-63
2022/08/06 05:48:20;;;;;;;15.93;3.50;;;;;;;35.87;27.28;100805.38;5088243;28;20020;-63
2022/08/06 05:51:11;;;;;;;9.68;2.72;;;;;;;35.76;26.78;100804.81;5087487;28;20498;-63
2022/08/06 05:53:48;;;;;;;10.05;2.80;;;;;;;36.01;25.86;100791.72;5090469;28;20044;-63
2022/08/06 05:56:21;;;;;;;9.68;3.20;;;;;;;35.87;25.78;100799.72;5087867;28;20036;-63
2022/08/06 05:58:58;;;;;;;10.80;4.22;;;;;;;35.89;25.54;100806.53;5086372;28;20053;-61
2022/08/06 06:01:26;;;;;;;10.30;3.13;;;;;;;35.69;25.38;100791.59;5085507;28;20101;-62
2022/08/06 06:03:55;;;;;;;11.98;2.40;;;;;;;35.75;25.40;100794.72;5084909;28;20035;-64
2022/08/06 06:06:23;;;;;;;10.93;2.70;;;;;;;35.84;24.94;100794.94;5085317;28;20029;-63
2022/08/06 06:08:50;;;;;;;8.38;2.50;;;;;;;35.64;24.70;100792.91;5086256;28;20103;-62
2022/08/06 06:11:17;;;;;;;13.52;2.53;;;;;;;35.65;24.53;100790.88;5084900;28;20027;-63
2022/08/06 06:13:46;;;;;;;10.50;2.25;;;;;;;35.55;25.18;100791.88;5087780;28;20046;-63
2022/08/06 06:16:24;;;;;;;9.32;2.60;;;;;;;35.51;24.81;100794.00;5086481;28;20452;-61
2022/08/06 06:19:20;;;;;;;10.77;2.63;;;;;;;35.67;24.74;100788.41;5085894;28;20033;-64
2022/08/06 06:22:21;;;;;;;12.70;2.80;;;;;;;35.67;24.13;100794.84;5091305;28;20032;-63
2022/08/06 06:24:59;;;;;;;10.95;2.78;;;;;;;35.60;24.73;100794.22;5080788;28;20034;-63
2022/08/06 06:27:45;;;;;;;7.47;2.30;;;;;;;35.50;24.80;100796.00;5083015;28;20541;-63
2022/08/06 06:30:46;;;;;;;11.93;2.53;;;;;;;35.59;24.84;100801.91;5085271;28;20097;-62
2022/08/06 06:33:22;;;;;;;12.45;2.50;;;;;;;35.44;24.61;100797.75;5084479;28;20028;-61
2022/08/06 06:35:55;;;;;;;10.55;2.50;;;;;;;35.32;25.31;100806.84;5082996;28;20033;-62
2022/08/06 06:38:33;;;;;;;11.50;2.83;;;;;;;35.29;25.40;100802.84;5082597;28;20050;-62
2022/08/06 06:41:42;;;;;;;10.82;2.30;;;;;;;35.41;24.98;100804.28;5086845;28;20032;-63
2022/08/06 06:44:25;;;;;;;9.70;2.25;;;;;;;35.32;24.76;100812.50;5086296;28;20065;-64
2022/08/06 06:47:01;;;;;;;8.95;1.90;;;;;;;35.26;25.24;100808.59;5081269;28;20086;-63
2022/08/06 06:49:38;;;;;;;13.32;2.13;;;;;;;35.29;24.95;100807.72;5080265;28;20028;-64
2022/08/06 06:52:32;;;;;;;8.00;1.85;;;;;;;35.32;24.86;100804.81;5082179;28;20042;-63
2022/08/06 06:55:05;;;;;;;6.43;2.33;;;;;;;35.37;24.84;100806.38;5090045;28;20058;-61
2022/08/06 06:57:36;;;;;;;9.60;2.13;;;;;;;35.36;25.03;100814.03;5093462;28;20031;-63
2022/08/06 07:00:05;;;;;;;7.72;2.13;;;;;;;35.33;25.16;100814.09;5092052;28;20086;-64
2022/08/06 07:02:35;;;;;;;8.90;2.40;;;;;;;35.26;24.98;100815.03;5093047;28;20040;-63
2022/08/06 07:05:04;;;;;;;11.25;2.00;;;;;;;35.13;25.56;100814.06;5091162;28;20028;-63
2022/08/06 07:07:33;;;;;;;7.68;2.08;;;;;;;35.13;25.38;100809.19;5093406;28;20029;-62
2022/08/06 07:10:02;;;;;;;7.38;2.17;;;;;;;35.01;25.61;100804.19;5091036;28;20059;-62
2022/08/06 07:12:32;;;;;;;8.20;2.00;;;;;;;34.77;26.77;100806.19;5089986;28;20020;-61
2022/08/06 07:15:05;;;;;;;10.13;2.72;;;;;;;34.69;26.76;100803.91;5093416;28;20482;-61
2022/08/06 07:17:34;;;;;;;7.88;2.60;;;;;;;34.68;26.66;100797.47;5090921;28;20115;-61
2022/08/06 07:20:05;;;;;;;9.60;2.28;;;;;;;34.70;26.54;100799.84;5093019;28;20426;-65
2022/08/06 07:22:35;;;;;;;9.00;2.55;;;;;;;34.79;26.18;100800.88;5090564;28;20024;-61
2022/08/06 07:25:05;;;;;;;10.40;2.70;;;;;;;34.78;26.33;100795.69;5092624;28;20048;-63
2022/08/06 07:27:48;;;;;;;8.88;2.22;;;;;;;34.78;26.77;100796.47;5090342;28;20356;-63
2022/08/06 07:30:18;;;;;;;5.50;2.38;;;;;;;34.64;26.94;100804.38;5092069;28;20050;-61
2022/08/06 07:32:47;;;;;;;12.40;2.72;;;;;;;34.65;26.80;100803.16;5092356;28;20036;-63
2022/08/06 07:35:15;;;;;;;8.60;2.40;;;;;;;34.49;26.80;100801.00;5092914;28;20117;-64
2022/08/06 07:38:00;;;;;;;7.63;2.85;;;;;;;34.56;26.60;100797.25;5092927;28;20020;-61
2022/08/06 07:40:40;;;;;;;9.95;2.55;;;;;;;34.47;26.80;100792.97;5092417;28;20024;-59
2022/08/06 07:43:13;;;;;;;8.85;2.50;;;;;;;34.37;26.74;100785.44;5090954;28;20032;-60
2022/08/06 07:45:40;;;;;;;6.43;2.03;;;;;;;34.40;27.37;100787.41;5093339;28;20028;-61
2022/08/06 07:48:12;;;;;;;6.55;2.10;;;;;;;34.36;27.04;100780.22;5094355;28;20031;-63
2022/08/06 07:50:46;;;;;;;11.15;1.80;;;;;;;34.36;26.82;100778.22;5093943;28;20036;-61
2022/08/06 07:53:14;;;;;;;6.70;2.30;;;;;;;34.30;26.73;100777.06;5093438;28;20032;-61
2022/08/06 07:55:43;;;;;;;6.55;2.00;;;;;;;34.33;26.71;100781.84;5092967;28;20268;-61
2022/08/06 07:58:11;;;;;;;7.15;2.10;;;;;;;34.38;26.83;100783.44;5092749;28;20036;-62
2022/08/06 08:00:39;;;;;;;9.38;2.28;;;;;;;34.28;26.93;100778.69;5092646;28;20044;-61
2022/08/06 08:08:40;;;;;;;8.30;2.00;;;;;;;34.26;26.49;100784.78;5093088;28;20039;-62
2022/08/06 08:11:08;;;;;;;11.18;2.55;;;;;;;34.29;26.60;100781.09;5093007;28;20107;-60
2022/08/06 08:13:37;;;;;;;17.33;2.33;;;;;;;34.23;26.45;100777.16;5093731;28;20032;-62
2022/08/06 08:16:07;;;;;;;12.25;2.70;;;;;;;34.11;26.92;100778.56;5092131;28;20047;-61
2022/08/06 08:18:34;;;;;;;10.52;2.72;;;;;;;33.94;27.11;100783.22;5093582;28;20032;-62
2022/08/06 08:21:02;;;;;;;15.57;2.90;;;;;;;33.94;27.19;100776.78;5093761;28;20012;-62
2022/08/06 08:23:32;;;;;;;7.97;2.83;;;;;;;33.96;27.14;100779.97;5093652;28;20032;-61
2022/08/06 08:26:02;;;;;;;6.60;2.55;;;;;;;33.90;27.21;100770.38;5093603;28;20375;-62
2022/08/06 08:28:30;;;;;;;5.82;2.40;;;;;;;33.84;27.17;100772.88;5093560;28;20133;-63
2022/08/06 08:31:08;;;;;;;9.48;2.67;;;;;;;33.83;27.33;100765.63;5093425;28;20031;-63
2022/08/06 08:33:35;;;;;;;8.68;2.58;;;;;;;33.67;27.73;100762.59;5093582;28;20441;-64
2022/08/06 08:36:04;;;;;;;7.47;2.65;;;;;;;33.59;28.27;100767.53;5093510;28;20106;-62
2022/08/06 08:38:32;;;;;;;9.43;2.95;;;;;;;33.45;28.32;100758.44;5093366;28;20035;-63
2022/08/06 08:41:08;;;;;;;9.25;2.42;;;;;;;33.33;28.53;100760.59;5093529;28;20158;-62
2022/08/06 08:43:49;;;;;;;7.30;2.80;;;;;;;33.30;28.38;100760.59;5093446;28;20040;-63
2022/08/06 08:46:17;;;;;;;8.50;2.50;;;;;;;33.42;28.03;100760.09;5093332;28;20040;-62
2022/08/06 08:48:44;;;;;;;15.85;2.53;;;;;;;33.45;28.14;100756.44;5093318;28;20109;-64
2022/08/06 08:51:15;;;;;;;8.60;2.22;;;;;;;33.36;28.29;100764.56;5091530;28;20047;-62
2022/08/06 08:53:51;;;;;;;11.20;3.10;;;;;;;33.42;28.23;100765.72;5093430;28;20394;-64
2022/08/06 08:56:18;;;;;;;8.13;2.53;;;;;;;33.29;28.87;100770.28;5093430;28;20028;-63
2022/08/06 08:58:46;;;;;;;10.38;2.22;;;;;;;33.38;28.44;100766.97;5093396;28;20024;-62
2022/08/06 09:01:13;;;;;;;8.95;2.58;;;;;;;33.38;28.38;100761.34;5092896;28;20080;-62
2022/08/06 09:03:40;;;;;;;9.18;2.55;;;;;;;33.49;28.09;100762.81;5091991;28;20522;-62
2022/08/06 09:06:08;;;;;;;12.48;2.40;;;;;;;33.40;28.04;100756.09;5093073;28;20032;-62
2022/08/06 09:08:36;;;;;;;7.88;2.10;;;;;;;33.41;27.85;100761.31;5093318;28;20099;-63
2022/08/06 09:11:03;;;;;;;6.70;1.90;;;;;;;33.29;28.02;100759.00;5093131;28;20031;-63
2022/08/06 09:13:30;;;;;;;3.97;1.92;;;;;;;33.23;28.65;100764.31;5093284;28;20107;-62
2022/08/06 09:15:57;;;;;;;11.85;2.10;;;;;;;33.16;28.58;100766.38;5093134;28;20032;-61
2022/08/06 09:18:26;;;;;;;5.75;1.83;;;;;;;33.16;28.51;100772.81;5093036;28;20028;-62
2022/08/06 09:20:53;;;;;;;6.35;1.90;;;;;;;33.07;28.71;100778.16;5093045;28;20441;-64
2022/08/06 09:23:19;;;;;;;6.38;2.75;;;;;;;32.99;28.59;100763.31;5093179;28;20020;-63
2022/08/06 09:25:51;;;;;;;10.38;2.28;;;;;;;33.02;28.79;100772.94;5092952;28;20040;-62
2022/08/06 09:28:37;;;;;;;8.13;1.98;;;;;;;33.01;28.45;100774.97;5093186;28;20036;-62
2022/08/06 09:31:08;;;;;;;7.53;1.80;;;;;;;33.12;28.14;100766.44;5092906;28;20059;-62
2022/08/06 09:33:37;;;;;;;4.93;1.55;;;;;;;33.09;28.18;100764.44;5092930;28;20157;-62
2022/08/06 09:36:08;;;;;;;6.53;1.70;;;;;;;33.04;28.48;100759.28;5092213;28;20470;-63
2022/08/06 09:38:59;;;;;;;6.72;1.90;;;;;;;33.06;28.30;100756.84;5092863;28;20036;-60
2022/08/06 09:41:29;;;;;;;10.70;1.98;;;;;;;33.02;28.22;100765.31;5092822;28;20401;-60
2022/08/06 09:43:57;;;;;;;9.52;2.33;;;;;;;32.89;28.69;100774.72;5092892;28;20036;-61
2022/08/06 09:46:42;;;;;;;9.00;2.13;;;;;;;32.90;28.43;100774.28;5093039;28;20055;-61
2022/08/06 09:49:10;;;;;;;7.55;2.42;;;;;;;32.86;28.41;100759.44;5092742;28;20551;-61
2022/08/06 09:51:37;;;;;;;8.35;2.67;;;;;;;32.77;28.88;100764.72;5092896;28;20035;-62
2022/08/06 09:54:06;;;;;;;7.53;2.30;;;;;;;32.64;28.60;100767.22;5092652;28;20040;-61
2022/08/06 09:56:33;;;;;;;8.13;1.98;;;;;;;32.74;29.01;100762.75;5092697;28;20020;-61
2022/08/06 09:59:05;;;;;;;8.43;2.35;;;;;;;32.74;28.73;100763.53;5092517;28;20036;-61
2022/08/06 10:01:43;;;;;;;8.68;2.40;;;;;;;32.76;28.82;100761.09;5092860;28;20548;-62
2022/08/06 10:04:22;;;;;;;12.13;1.98;;;;;;;32.68;29.04;100765.22;5092751;28;20036;-61
2022/08/06 10:06:57;;;;;;;10.40;2.30;;;;;;;32.72;29.50;100768.78;5092729;28;20032;-61
2022/08/06 10:09:25;;;;;;;4.43;2.00;;;;;;;32.81;28.49;100757.06;5096369;28;20028;-61
2022/08/06 10:11:52;;;;;;;4.28;1.95;;;;;;;32.74;29.41;100766.34;5096165;28;20032;-62
2022/08/06 10:14:27;;;;;;;7.03;2.22;;;;;;;32.67;29.55;100774.84;5096005;28;20359;-62
2022/08/06 10:17:11;;;;;;;8.02;2.00;;;;;;;32.46;30.39;100775.00;5096132;28;20032;-61
2022/08/06 10:19:41;;;;;;;11.40;1.95;;;;;;;32.45;30.13;100773.41;5096055;28;20064;-61
2022/08/06 10:22:14;;;;;;;15.05;2.80;;;;;;;32.44;30.65;100771.81;5096172;28;20032;-62
2022/08/06 10:24:51;;;;;;;8.37;2.50;;;;;;;32.38;30.15;100773.47;5096120;28;20039;-61
2022/08/06 10:27:23;;;;;;;7.25;2.20;;;;;;;32.33;30.48;100771.91;5096149;28;20070;-61
2022/08/06 10:29:52;;;;;;;6.40;1.83;;;;;;;32.40;30.04;100771.84;5095781;28;20475;-61
2022/08/06 10:32:38;;;;;;;14.43;2.63;;;;;;;32.21;30.25;100774.38;5095954;28;20039;-62
2022/08/06 10:35:06;;;;;;;9.85;2.28;;;;;;;31.98;30.73;100758.03;5095859;28;20032;-60
2022/08/06 10:37:37;;;;;;;7.95;2.00;;;;;;;31.88;30.74;100773.75;5095796;28;20055;-61
2022/08/06 10:40:07;;;;;;;8.75;2.13;;;;;;;31.75;31.82;100764.16;5095823;28;20028;-62
2022/08/06 10:42:34;;;;;;;8.05;2.00;;;;;;;31.69;31.34;100765.78;5095640;28;20028;-60
2022/08/06 10:45:02;;;;;;;13.27;2.25;;;;;;;31.64;31.76;100772.63;5095548;28;20028;-61
2022/08/06 10:47:29;;;;;;;9.43;2.05;;;;;;;31.66;31.28;100767.41;5095581;28;20024;-61
2022/08/06 10:49:56;;;;;;;26.48;2.92;;;;;;;31.55;32.00;100761.00;5095394;28;20118;-61
2022/08/06 10:52:23;;;;;;;10.70;2.40;;;;;;;31.50;31.39;100767.84;5095608;28;20397;-61
2022/08/06 10:54:51;;;;;;;15.10;2.47;;;;;;;31.41;31.24;100761.06;5095488;28;20066;-61
2022/08/06 10:57:19;;;;;;;8.02;2.35;;;;;;;31.46;31.83;100772.69;5095358;28;20020;-62
2022/08/06 10:59:47;;;;;;;7.65;2.20;;;;;;;31.47;30.69;100765.88;5095023;28;20446;-62
2022/08/06 11:02:22;;;;;;;8.30;2.47;;;;;;;31.71;30.43;100764.16;5095233;28;20043;-61
2022/08/06 11:04:54;;;;;;;8.63;2.33;;;;;;;31.97;29.82;100760.06;5095209;28;20032;-61
2022/08/06 11:07:30;;;;;;;6.15;1.70;;;;;;;31.98;29.28;100766.47;5095311;28;20028;-60
2022/08/06 11:10:15;;;;;;;5.57;2.10;;;;;;;32.05;29.28;100772.84;5095017;28;20036;-61
2022/08/06 11:12:53;;;;;;;6.60;1.80;;;;;;;31.99;29.24;100768.06;5095080;28;20040;-61
2022/08/06 11:15:20;;;;;;;5.38;2.00;;;;;;;32.08;29.22;100776.84;5093817;28;20035;-60
2022/08/06 11:18:05;;;;;;;5.80;1.88;;;;;;;32.08;28.82;100772.03;5093828;28;20414;-61
2022/08/06 11:20:31;;;;;;;;;;;;;;;32.00;29.31;100778.09;5095448;28;20024;-61
2022/08/06 11:22:59;;;;;;;8.27;2.20;;;;;;;31.89;29.37;100778.16;5095036;28;19919;-61
2022/08/06 11:25:43;;;;;;;8.82;2.00;;;;;;;31.81;30.01;100773.78;5094822;28;20040;-61
2022/08/06 11:28:17;;;;;;;7.47;1.77;;;;;;;31.73;29.98;100783.44;5094745;28;20028;-61
2022/08/06 11:30:51;;;;;;;6.43;2.17;;;;;;;31.68;30.17;100781.84;5094824;28;20478;-60
2022/08/06 11:33:41;;;;;;;;;;;;;;;31.45;30.13;100790.75;5095096;28;20036;-60
2022/08/06 11:36:24;;;;;;;11.10;2.00;;;;;;;31.63;30.10;100781.47;5094646;28;19989;-61
2022/08/06 11:38:54;;;;;;;8.68;2.13;;;;;;;31.67;29.93;100773.81;5094481;28;20043;-61
2022/08/06 11:41:24;;;;;;;7.38;1.77;;;;;;;31.68;29.73;100775.41;5094798;28;20040;-60
2022/08/06 11:43:51;;;;;;;6.63;2.00;;;;;;;31.68;29.88;100786.66;5094359;28;20028;-61
2022/08/06 11:46:27;;;;;;;9.38;1.90;;;;;;;31.57;30.01;100779.06;5094421;28;20067;-62
2022/08/06 11:49:02;;;;;;;9.70;1.80;;;;;;;31.47;29.99;100782.72;5094348;28;20482;-61